Time;durP1;ratioP1;P1;durP2;ratioP2;P2;SDS_P1;SDS_P2;PMS_P1;PMS_P2;Temp;Humidity;BMP_temperature;BMP_pressure;BME280_temperature;BME280_humidity;BME280_pressure;Samples;Min_cycle;Max_cycle;Signal;HPM_P1;HPM_P2
2022/01/29 00:02:07;;;;;;;17.70;7.55;;;;;;;6.16;100.00;102497.97;4847098;29;20610;-64
2022/01/29 00:04:33;;;;;;;22.80;7.20;;;;;;;6.16;100.00;102496.19;4830210;29;20072;-64
2022/01/29 00:06:59;;;;;;;21.27;7.88;;;;;;;6.17;100.00;102481.31;4848927;29;20064;-64
2022/01/29 00:09:24;;;;;;;28.00;6.78;;;;;;;6.17;100.00;102481.31;4848567;29;20063;-64
2022/01/29 00:11:50;;;;;;;24.02;7.55;;;;;;;6.17;100.00;102470.78;4848159;29;20063;-64
2022/01/29 00:14:15;;;;;;;27.40;7.80;;;;;;;6.18;100.00;102469.91;4848537;29;20154;-64
2022/01/29 00:16:41;;;;;;;26.05;7.30;;;;;;;6.18;100.00;102456.75;4848518;29;20049;-64
2022/01/29 00:19:07;;;;;;;21.42;7.28;;;;;;;6.19;100.00;102442.72;4846889;29;20029;-64
2022/01/29 00:21:32;;;;;;;24.10;8.15;;;;;;;6.20;100.00;102454.97;4849407;29;20117;-64
2022/01/29 00:23:58;;;;;;;31.67;7.35;;;;;;;6.21;100.00;102456.75;4848217;29;20033;-65
2022/01/29 00:26:26;;;;;;;24.40;6.82;;;;;;;6.22;100.00;102455.88;4849709;29;20037;-65
2022/01/29 00:28:51;;;;;;;20.80;6.53;;;;;;;6.22;100.00;102445.34;4833757;29;20045;-65
2022/01/29 00:31:18;;;;;;;26.67;7.57;;;;;;;6.24;100.00;102443.59;4847316;29;20045;-65
2022/01/29 00:33:44;;;;;;;22.42;7.55;;;;;;;6.22;100.00;102446.22;4846229;29;20055;-65
2022/01/29 00:36:09;;;;;;;32.33;7.82;;;;;;;6.23;100.00;102433.94;4849073;29;20121;-65
2022/01/29 00:38:35;;;;;;;23.50;6.97;;;;;;;6.24;100.00;102430.44;4848385;29;20047;-65
2022/01/29 00:41:02;;;;;;;23.55;6.60;;;;;;;6.25;100.00;102432.19;4847853;29;20064;-65
2022/01/29 00:43:27;;;;;;;30.35;7.50;;;;;;;6.25;100.00;102429.56;4847242;29;20030;-65
2022/01/29 00:45:53;;;;;;;28.80;7.68;;;;;;;6.27;100.00;102426.94;4856476;29;20044;-65
2022/01/29 00:48:18;;;;;;;24.45;7.25;;;;;;;6.25;100.00;102414.66;4850245;29;20045;-65
2022/01/29 00:50:43;;;;;;;24.08;7.68;;;;;;;6.27;100.00;102421.66;4850689;29;20060;-65
2022/01/29 00:53:09;;;;;;;23.02;7.30;;;;;;;6.28;100.00;102416.41;4850747;29;20032;-65
2022/01/29 00:55:34;;;;;;;27.17;7.20;;;;;;;6.28;100.00;102402.38;4840836;29;20049;-65
2022/01/29 00:58:00;;;;;;;24.23;7.63;;;;;;;6.30;100.00;102395.34;4850943;29;20040;-65
2022/01/29 01:00:26;;;;;;;30.73;7.57;;;;;;;6.30;100.00;102390.09;4852013;29;20040;-65
2022/01/29 01:02:51;;;;;;;29.35;7.57;;;;;;;6.30;100.00;102397.97;4851188;29;21789;-65
2022/01/29 01:05:17;;;;;;;23.10;7.63;;;;;;;6.32;100.00;102390.97;4849638;29;20041;-65
2022/01/29 01:07:43;;;;;;;30.15;8.15;;;;;;;6.34;100.00;102399.72;4851224;29;20033;-64
2022/01/29 01:10:10;;;;;;;25.60;7.90;;;;;;;6.34;100.00;102387.47;4851222;29;20604;-65
2022/01/29 01:12:35;;;;;;;25.33;7.45;;;;;;;6.35;100.00;102386.59;4851005;29;20052;-65
2022/01/29 01:15:01;;;;;;;22.08;7.28;;;;;;;6.38;100.00;102388.34;4848243;29;20064;-64
2022/01/29 01:17:27;;;;;;;28.63;7.85;;;;;;;6.40;100.00;102397.09;4850872;29;20038;-65
2022/01/29 01:19:52;;;;;;;28.00;7.60;;;;;;;6.41;100.00;102379.53;4849245;29;20072;-65
2022/01/29 01:22:18;;;;;;;23.15;7.55;;;;;;;6.42;100.00;102379.53;4850588;29;20113;-66
2022/01/29 01:24:44;;;;;;;24.70;8.00;;;;;;;6.44;100.00;102374.28;4849646;29;20163;-65
2022/01/29 01:27:10;;;;;;;22.08;7.20;;;;;;;6.46;100.00;102370.75;4848918;29;20432;-65
2022/01/29 01:29:35;;;;;;;25.38;7.40;;;;;;;6.48;100.00;102365.50;4848995;29;20040;-65
2022/01/29 01:32:01;;;;;;;23.88;7.22;;;;;;;6.48;100.00;102369.00;4851413;29;20057;-65
2022/01/29 01:34:31;;;;;;;27.38;7.05;;;;;;;6.50;100.00;102358.47;4849090;29;20081;-64
2022/01/29 01:37:06;;;;;;;23.88;7.57;;;;;;;6.51;100.00;102360.22;4850537;29;20048;-65
2022/01/29 01:39:35;;;;;;;26.52;7.53;;;;;;;6.53;100.00;102368.97;4850377;29;20041;-65
2022/01/29 01:42:05;;;;;;;24.25;8.45;;;;;;;6.55;100.00;102358.44;4849781;29;20033;-65
2022/01/29 01:44:38;;;;;;;23.38;7.95;;;;;;;6.56;100.00;102358.44;4833632;29;20389;-65
2022/01/29 01:47:04;;;;;;;20.05;7.57;;;;;;;6.58;100.00;102359.28;4850658;29;20574;-65
2022/01/29 01:49:30;;;;;;;23.23;7.68;;;;;;;6.59;100.00;102360.19;4832702;29;20357;-65
2022/01/29 01:51:55;;;;;;;27.88;7.95;;;;;;;6.60;100.00;102352.25;4850623;29;20033;-65
2022/01/29 01:54:21;;;;;;;30.20;8.60;;;;;;;6.62;100.00;102339.09;4850384;29;20037;-65
2022/01/29 01:56:46;;;;;;;32.17;9.80;;;;;;;6.63;100.00;102336.47;4849690;29;20046;-65
2022/01/29 01:59:12;;;;;;;24.92;9.48;;;;;;;6.65;100.00;102332.06;4838105;29;20116;-64
2022/01/29 02:01:38;;;;;;;26.55;9.55;;;;;;;6.68;100.00;102318.03;4850671;29;20136;-65
2022/01/29 02:04:03;;;;;;;29.80;10.32;;;;;;;6.69;100.00;102319.75;4848167;29;20060;-65
2022/01/29 02:06:30;;;;;;;29.38;10.25;;;;;;;6.71;100.00;102317.13;4850511;29;20808;-63
2022/01/29 02:08:59;;;;;;;29.00;10.23;;;;;;;6.72;100.00;102311.88;4821202;29;20048;-65
2022/01/29 02:11:26;;;;;;;27.50;10.13;;;;;;;6.75;100.00;102308.34;4850852;29;20481;-65
2022/01/29 02:13:52;;;;;;;25.58;11.25;;;;;;;6.76;100.00;102302.19;4850258;29;20425;-65
2022/01/29 02:16:17;;;;;;;34.65;11.18;;;;;;;6.78;100.00;102300.41;4847981;29;20119;-65
2022/01/29 02:18:44;;;;;;;25.60;11.20;;;;;;;6.78;100.00;102303.94;4848644;29;20845;-65
2022/01/29 02:21:11;;;;;;;30.50;11.43;;;;;;;6.79;100.00;102294.25;4850444;29;20029;-63
2022/01/29 02:23:36;;;;;;;35.25;11.20;;;;;;;6.81;100.00;102283.72;4849783;29;20037;-65
2022/01/29 02:26:02;;;;;;;30.67;11.18;;;;;;;6.82;100.00;102272.31;4848079;29;20029;-65
2022/01/29 02:28:27;;;;;;;30.60;11.40;;;;;;;6.82;100.00;102270.56;4849048;29;20140;-65
2022/01/29 02:30:58;;;;;;;25.15;10.57;;;;;;;6.82;100.00;102273.19;4833998;29;20045;-65
2022/01/29 02:33:24;;;;;;;25.33;11.05;;;;;;;6.84;100.00;102260.00;4848496;29;20045;-65
2022/01/29 02:35:51;;;;;;;30.10;11.82;;;;;;;6.83;100.00;102261.78;4848835;29;20106;-65
2022/01/29 02:38:20;;;;;;;30.52;11.90;;;;;;;6.84;100.00;102255.63;4849743;29;20033;-65
2022/01/29 02:40:48;;;;;;;26.30;11.00;;;;;;;6.85;100.00;102246.84;4848777;29;20504;-65
2022/01/29 02:43:14;;;;;;;35.05;11.75;;;;;;;6.86;100.00;102245.09;4850275;29;20044;-65
2022/01/29 02:45:42;;;;;;;29.48;11.13;;;;;;;6.85;100.00;102238.94;4848354;29;20034;-65
2022/01/29 02:48:07;;;;;;;34.83;11.98;;;;;;;6.85;100.00;102236.31;4834578;29;20143;-65
2022/01/29 02:50:33;;;;;;;34.97;12.70;;;;;;;6.86;100.00;102240.69;4847842;29;20129;-64
2022/01/29 02:52:59;;;;;;;35.70;12.13;;;;;;;6.84;100.00;102237.19;4849625;29;20194;-65
2022/01/29 02:55:24;;;;;;;33.00;11.77;;;;;;;6.85;100.00;102231.03;4848782;29;20037;-65
2022/01/29 02:57:50;;;;;;;36.47;11.93;;;;;;;6.85;100.00;102235.41;4849104;29;20032;-65
2022/01/29 03:00:15;;;;;;;36.75;12.60;;;;;;;6.85;100.00;102236.31;4849129;29;20037;-65
2022/01/29 03:02:41;;;;;;;30.77;11.73;;;;;;;6.86;100.00;102237.19;4837437;29;20085;-65
2022/01/29 03:05:07;;;;;;;34.47;11.80;;;;;;;6.86;100.00;102227.53;4847277;29;20516;-65
2022/01/29 03:07:32;;;;;;;31.92;12.07;;;;;;;6.87;100.00;102229.25;4848795;29;20048;-65
2022/01/29 03:09:58;;;;;;;32.53;12.10;;;;;;;6.87;100.00;102224.00;4849386;29;20029;-64
2022/01/29 03:12:23;;;;;;;30.70;12.70;;;;;;;6.87;100.00;102216.09;4849135;29;20032;-65
2022/01/29 03:14:49;;;;;;;28.95;12.25;;;;;;;6.87;100.00;102208.19;4848613;29;20048;-65
2022/01/29 03:17:14;;;;;;;32.13;12.43;;;;;;;6.88;100.00;102204.72;4848652;29;20041;-65
2022/01/29 03:19:40;;;;;;;38.80;13.32;;;;;;;6.88;100.00;102195.91;4847019;29;20226;-65
2022/01/29 03:22:05;;;;;;;30.98;11.88;;;;;;;6.88;100.00;102198.56;4848829;29;20037;-65
2022/01/29 03:24:31;;;;;;;32.58;12.25;;;;;;;6.89;100.00;102205.56;4848641;29;20037;-65
2022/01/29 03:26:56;;;;;;;37.65;12.40;;;;;;;6.89;100.00;102206.44;4849381;29;20041;-65
2022/01/29 03:29:21;;;;;;;37.25;12.70;;;;;;;6.90;100.00;102202.94;4848904;29;20633;-65
2022/01/29 03:31:47;;;;;;;31.75;13.65;;;;;;;6.91;100.00;102193.25;4849397;29;20158;-65
2022/01/29 03:34:12;;;;;;;36.60;13.60;;;;;;;6.92;100.00;102197.66;4836372;29;20650;-65
2022/01/29 03:36:38;;;;;;;31.45;13.25;;;;;;;6.92;100.00;102201.16;4849678;29;20045;-65
2022/01/29 03:39:04;;;;;;;32.45;13.07;;;;;;;6.94;100.00;102203.78;4848580;29;20033;-64
2022/01/29 03:41:30;;;;;;;41.15;13.88;;;;;;;6.93;100.00;102197.63;4848261;29;21375;-64
2022/01/29 03:44:01;;;;;;;32.65;13.32;;;;;;;6.93;100.00;102197.63;4846946;29;20052;-64
2022/01/29 03:46:26;;;;;;;43.58;14.73;;;;;;;6.96;100.00;102195.88;4847939;29;20215;-64
2022/01/29 03:48:52;;;;;;;35.10;14.38;;;;;;;6.96;100.00;102190.59;4847075;29;20541;-65
2022/01/29 03:51:17;;;;;;;31.52;13.38;;;;;;;6.98;100.00;102183.56;4848270;29;20152;-64
2022/01/29 03:53:43;;;;;;;36.67;13.50;;;;;;;6.98;100.00;102178.28;4849208;29;20037;-64
2022/01/29 03:56:08;;;;;;;36.88;13.20;;;;;;;7.00;100.00;102176.50;4847644;29;20259;-64
2022/01/29 03:58:34;;;;;;;33.83;12.93;;;;;;;7.01;100.00;102167.72;4846825;29;20041;-64
2022/01/29 04:00:59;;;;;;;31.98;13.73;;;;;;;7.01;100.00;102171.22;4834058;29;20429;-64
2022/01/29 04:03:25;;;;;;;33.45;13.50;;;;;;;7.03;100.00;102158.06;4836128;29;20033;-64
2022/01/29 04:05:51;;;;;;;34.05;12.23;;;;;;;7.04;100.00;102146.63;4847917;29;20033;-65
2022/01/29 04:08:18;;;;;;;27.27;12.73;;;;;;;7.03;100.00;102140.47;4849007;29;20048;-64
2022/01/29 04:10:44;;;;;;;26.83;13.73;;;;;;;7.05;100.00;102144.00;4848319;29;20033;-64
2022/01/29 04:13:11;;;;;;;27.08;12.80;;;;;;;7.06;100.00;102139.59;4848306;29;20041;-64
2022/01/29 04:15:37;;;;;;;32.28;14.18;;;;;;;7.07;100.00;102133.41;4847692;29;20174;-64
2022/01/29 04:18:03;;;;;;;35.95;13.63;;;;;;;7.09;100.00;102130.78;4848451;29;20428;-64
2022/01/29 04:20:29;;;;;;;28.90;13.23;;;;;;;7.09;100.00;102129.03;4850199;29;20133;-65
2022/01/29 04:22:55;;;;;;;32.03;12.35;;;;;;;7.10;100.00;102129.88;4851687;29;20029;-65
2022/01/29 04:25:20;;;;;;;34.00;13.05;;;;;;;7.09;100.00;102123.75;4853051;29;20040;-65
2022/01/29 04:27:47;;;;;;;30.27;13.05;;;;;;;7.11;100.00;102132.50;4852285;29;21081;-65
2022/01/29 04:30:29;;;;;;;31.75;13.02;;;;;;;7.13;100.00;102137.78;4851865;29;21515;-65
2022/01/29 04:33:44;;;;;;;33.85;13.43;;;;;;;7.14;100.00;102126.34;4851177;29;20104;-65
2022/01/29 04:35:45;;;;;;;28.60;12.52;;;;;;;7.14;100.00;102126.34;4848391;29;20143;-65
2022/01/29 04:38:11;;;;;;;31.85;12.98;;;;;;;7.16;100.00;102129.81;4851932;29;20503;-65
2022/01/29 04:40:37;;;;;;;29.33;13.07;;;;;;;7.17;100.00;102135.09;4852024;29;20030;-65
2022/01/29 04:43:04;;;;;;;34.42;13.48;;;;;;;7.18;100.00;102133.31;4851649;29;20047;-65
2022/01/29 04:45:30;;;;;;;29.60;13.27;;;;;;;7.18;100.00;102136.81;4840397;29;20030;-65
2022/01/29 04:47:56;;;;;;;28.52;13.52;;;;;;;7.21;100.00;102143.81;4851068;29;20492;-65
2022/01/29 04:50:21;;;;;;;36.67;13.18;;;;;;;7.23;100.00;102141.19;4849880;29;21238;-65
2022/01/29 04:52:47;;;;;;;35.25;13.90;;;;;;;7.25;100.00;102134.13;4849958;29;20064;-65
2022/01/29 04:55:12;;;;;;;32.35;14.05;;;;;;;7.26;100.00;102146.41;4851615;29;20498;-65
2022/01/29 04:57:40;;;;;;;27.40;13.13;;;;;;;7.27;100.00;102127.06;4851348;29;20392;-65
2022/01/29 05:00:11;;;;;;;25.90;13.20;;;;;;;7.29;100.00;102135.81;4851642;29;20098;-65
2022/01/29 05:02:37;;;;;;;30.50;13.68;;;;;;;7.29;100.00;102120.00;4854679;29;20041;-63
2022/01/29 05:05:03;;;;;;;30.10;13.57;;;;;;;7.30;100.00;102127.91;4850918;29;20148;-65
2022/01/29 05:07:29;;;;;;;29.70;13.07;;;;;;;7.31;100.00;102128.78;4851369;29;20083;-64
2022/01/29 05:09:54;;;;;;;28.60;13.20;;;;;;;7.31;100.00;102111.22;4851030;29;20120;-63
2022/01/29 05:12:25;;;;;;;28.25;13.27;;;;;;;7.32;100.00;102115.59;4849649;29;20079;-64
2022/01/29 05:27:59;;;;;;;30.23;13.20;;;;;;;7.36;100.00;102108.53;4851039;29;20788;-64
2022/01/29 05:30:25;;;;;;;32.30;12.50;;;;;;;7.37;100.00;102105.00;4850775;29;20045;-64
2022/01/29 05:32:51;;;;;;;28.15;13.07;;;;;;;7.38;100.00;102106.75;4850127;29;20249;-64
2022/01/29 05:35:16;;;;;;;26.92;12.65;;;;;;;7.38;100.00;102106.75;4848952;29;20049;-64
2022/01/29 05:37:42;;;;;;;30.88;13.13;;;;;;;7.38;100.00;102106.75;4851070;29;20108;-64
2022/01/29 05:40:08;;;;;;;28.70;13.45;;;;;;;7.39;100.00;102102.34;4850914;29;20076;-64
2022/01/29 05:42:33;;;;;;;26.92;12.35;;;;;;;7.40;100.00;102096.22;4850054;29;20049;-64
2022/01/29 05:44:59;;;;;;;26.17;12.57;;;;;;;7.40;100.00;102086.53;4850283;29;20036;-64
2022/01/29 05:47:24;;;;;;;27.05;12.90;;;;;;;7.41;100.00;102084.78;4848367;29;20403;-64
2022/01/29 05:49:50;;;;;;;26.17;13.05;;;;;;;7.41;100.00;102087.41;4833640;29;20124;-63
2022/01/29 05:52:15;;;;;;;28.42;13.10;;;;;;;7.41;100.00;102080.34;4836505;29;20033;-63
2022/01/29 05:54:41;;;;;;;26.33;12.63;;;;;;;7.41;100.00;102090.91;4849607;29;20042;-63
2022/01/29 05:57:07;;;;;;;27.60;12.25;;;;;;;7.43;100.00;102077.72;4851398;29;20137;-64
2022/01/29 05:59:35;;;;;;;26.58;12.43;;;;;;;7.44;100.00;102080.34;4849293;29;20037;-64
2022/01/29 06:02:00;;;;;;;25.70;12.02;;;;;;;7.45;100.00;102079.44;4837882;29;20029;-64
2022/01/29 06:04:26;;;;;;;28.52;12.48;;;;;;;7.46;100.00;102077.66;4849206;29;20495;-64
2022/01/29 06:06:51;;;;;;;22.75;11.65;;;;;;;7.46;100.00;102078.53;4850423;29;20561;-64
2022/01/29 06:09:17;;;;;;;24.50;12.77;;;;;;;7.46;100.00;102070.63;4850634;29;20033;-64
2022/01/29 06:11:42;;;;;;;22.05;12.23;;;;;;;7.46;100.00;102065.38;4850465;29;20509;-65
2022/01/29 06:14:09;;;;;;;26.58;12.50;;;;;;;7.45;100.00;102063.63;4849656;29;20037;-65
2022/01/29 06:16:35;;;;;;;28.33;12.43;;;;;;;7.46;100.00;102069.75;4855876;29;20037;-65
2022/01/29 06:19:00;;;;;;;23.95;11.88;;;;;;;7.46;100.00;102049.56;4847103;29;20386;-65
2022/01/29 06:21:26;;;;;;;25.80;12.52;;;;;;;7.46;100.00;102041.66;4850349;29;20069;-65
2022/01/29 06:23:52;;;;;;;25.77;12.15;;;;;;;7.46;100.00;102049.56;4847396;29;20033;-65
2022/01/29 06:26:17;;;;;;;22.48;11.90;;;;;;;7.46;100.00;102039.03;4850089;29;20063;-63
2022/01/29 06:28:43;;;;;;;26.27;12.07;;;;;;;7.48;100.00;102031.09;4850347;29;20429;-64
2022/01/29 06:31:10;;;;;;;23.77;11.38;;;;;;;7.48;100.00;102024.03;4851135;29;20084;-64
2022/01/29 06:33:35;;;;;;;23.80;12.00;;;;;;;7.50;100.00;102044.22;4848848;29;20171;-63
2022/01/29 06:36:01;;;;;;;28.58;11.68;;;;;;;7.51;100.00;102030.19;4833652;29;20681;-64
2022/01/29 06:38:27;;;;;;;28.35;11.63;;;;;;;7.52;100.00;102031.94;4849333;29;20120;-64
2022/01/29 06:40:52;;;;;;;23.20;11.07;;;;;;;7.53;100.00;102023.13;4848458;29;20037;-64
2022/01/29 06:43:18;;;;;;;24.42;10.95;;;;;;;7.53;100.00;102012.59;4848917;29;20449;-64
2022/01/29 06:45:44;;;;;;;21.20;10.70;;;;;;;7.55;100.00;102018.69;4849316;29;20064;-64
2022/01/29 06:48:11;;;;;;;22.02;10.57;;;;;;;7.56;100.00;102017.78;4838204;29;20044;-64
2022/01/29 06:50:36;;;;;;;30.10;11.65;;;;;;;7.55;100.00;102022.22;4846540;29;20184;-64
2022/01/29 06:53:02;;;;;;;23.45;10.68;;;;;;;7.55;100.00;102014.31;4834245;29;20041;-64
2022/01/29 06:55:28;;;;;;;21.85;10.85;;;;;;;7.55;100.00;102000.25;4849061;29;20033;-64
2022/01/29 06:57:53;;;;;;;21.17;10.38;;;;;;;7.57;100.00;101998.47;4823037;29;20044;-64
2022/01/29 07:00:19;;;;;;;23.73;10.43;;;;;;;7.57;100.00;101990.56;4848879;29;20048;-64
2022/01/29 07:02:45;;;;;;;23.05;10.52;;;;;;;7.58;100.00;102002.84;4848364;29;20414;-64
2022/01/29 07:05:12;;;;;;;21.02;9.65;;;;;;;7.58;100.00;101979.13;4848285;29;20089;-66
2022/01/29 07:07:37;;;;;;;21.10;10.35;;;;;;;7.58;100.00;102011.63;4848878;29;20945;-66
2022/01/29 07:10:04;;;;;;;21.23;9.65;;;;;;;7.58;100.00;102016.03;4849119;29;20037;-66
2022/01/29 07:12:30;;;;;;;21.95;11.60;;;;;;;7.58;100.00;102000.22;4835453;29;20045;-66
2022/01/29 07:14:55;;;;;;;25.52;10.68;;;;;;;7.57;100.00;102003.75;4849103;29;20033;-66
2022/01/29 07:17:23;;;;;;;25.20;10.43;;;;;;;7.58;100.00;101994.94;4849312;29;20125;-66
2022/01/29 07:19:52;;;;;;;17.13;9.50;;;;;;;7.58;100.00;101990.53;4831810;29;20052;-66
2022/01/29 07:22:21;;;;;;;21.65;9.75;;;;;;;7.59;100.00;101970.34;4846664;29;20033;-66
2022/01/29 07:24:49;;;;;;;27.30;9.73;;;;;;;7.59;100.00;101971.19;4847952;29;20232;-66
2022/01/29 07:27:15;;;;;;;20.13;8.93;;;;;;;7.60;100.00;101969.44;4848280;29;20693;-66
2022/01/29 07:29:40;;;;;;;23.92;9.35;;;;;;;7.59;100.00;101971.19;4848168;29;20033;-66
2022/01/29 07:32:07;;;;;;;21.13;10.18;;;;;;;7.61;100.00;101960.63;4848474;29;20401;-66
2022/01/29 07:34:32;;;;;;;20.13;9.00;;;;;;;7.60;100.00;101962.41;4848028;29;20045;-66
2022/01/29 07:36:58;;;;;;;19.85;8.68;;;;;;;7.62;100.00;101965.00;4848984;29;20061;-66
2022/01/29 07:39:25;;;;;;;18.52;8.45;;;;;;;7.61;100.00;101969.41;4833285;29;20477;-66
2022/01/29 07:41:50;;;;;;;19.20;8.65;;;;;;;7.63;100.00;101966.75;4848111;29;20049;-66
2022/01/29 07:44:16;;;;;;;17.65;8.75;;;;;;;7.65;100.00;101974.63;4847826;29;20113;-66
2022/01/29 07:46:42;;;;;;;22.90;9.02;;;;;;;7.65;100.00;101966.72;4848947;29;20634;-66
2022/01/29 07:49:08;;;;;;;21.63;9.02;;;;;;;7.65;100.00;101959.69;4847875;29;20041;-67
2022/01/29 07:51:34;;;;;;;18.73;8.45;;;;;;;7.66;100.00;101958.81;4847944;29;20037;-66
2022/01/29 07:54:00;;;;;;;20.75;8.25;;;;;;;7.65;100.00;101951.78;4827145;29;20118;-67
2022/01/29 07:56:26;;;;;;;19.52;7.93;;;;;;;7.67;100.00;101957.91;4852099;29;20136;-67
2022/01/29 07:58:51;;;;;;;17.60;7.93;;;;;;;7.68;100.00;101953.50;4852508;29;20044;-66
2022/01/29 08:01:18;;;;;;;14.45;7.70;;;;;;;7.70;100.00;101955.22;4850935;29;20452;-64
2022/01/29 08:03:48;;;;;;;17.27;7.63;;;;;;;7.70;100.00;101946.44;4850837;29;20076;-67
2022/01/29 08:06:14;;;;;;;19.40;7.78;;;;;;;7.71;100.00;101953.44;4852188;29;20047;-66
2022/01/29 08:08:40;;;;;;;21.88;7.95;;;;;;;7.72;100.00;101944.63;4851986;29;20756;-66
2022/01/29 08:11:07;;;;;;;16.73;7.32;;;;;;;7.73;100.00;101944.63;4853567;29;20102;-66
2022/01/29 08:13:33;;;;;;;15.48;7.38;;;;;;;7.75;100.00;101945.47;4840968;29;20037;-73
2022/01/29 08:15:59;;;;;;;19.60;6.93;;;;;;;7.77;100.00;101941.94;4838492;29;20069;-67
2022/01/29 08:18:24;;;;;;;15.68;6.75;;;;;;;7.80;100.00;101936.63;4834100;29;20591;-65
2022/01/29 08:20:50;;;;;;;18.60;7.10;;;;;;;7.81;100.00;101925.19;4851842;29;20033;-66
2022/01/29 08:23:15;;;;;;;18.40;7.30;;;;;;;7.81;100.00;101928.69;4836251;29;20044;-66
2022/01/29 08:25:41;;;;;;;17.25;6.22;;;;;;;7.82;100.00;101914.63;4855218;29;20041;-66
2022/01/29 08:28:07;;;;;;;16.35;6.22;;;;;;;7.84;100.00;101925.16;4851030;29;20037;-66
2022/01/29 08:30:32;;;;;;;16.13;6.25;;;;;;;7.86;100.00;101920.72;4851059;29;20047;-65
2022/01/29 08:32:59;;;;;;;16.48;6.07;;;;;;;7.88;100.00;101916.25;4851247;29;20125;-65
2022/01/29 08:35:25;;;;;;;15.38;6.10;;;;;;;7.91;100.00;101912.72;4850358;29;20483;-67
2022/01/29 08:37:51;;;;;;;15.38;6.18;;;;;;;7.93;100.00;101926.72;4837002;29;20037;-64
2022/01/29 08:40:16;;;;;;;11.38;6.10;;;;;;;7.94;100.00;101917.91;4835106;29;21119;-65
2022/01/29 08:42:42;;;;;;;16.80;6.05;;;;;;;7.94;100.00;101918.78;4851403;29;20029;-66
2022/01/29 08:45:08;;;;;;;9.57;5.35;;;;;;;7.96;100.00;101910.88;4850854;29;20037;-66
2022/01/29 08:47:34;;;;;;;12.88;5.38;;;;;;;7.97;100.00;101913.50;4850567;29;20120;-66
2022/01/29 08:50:03;;;;;;;13.02;5.10;;;;;;;8.00;100.00;101907.25;4850624;29;20128;-65
2022/01/29 08:52:29;;;;;;;18.55;6.25;;;;;;;8.02;100.00;101911.63;4823968;29;20037;-66
2022/01/29 08:54:55;;;;;;;14.88;5.60;;;;;;;8.04;100.00;101901.06;4850969;29;20033;-65
2022/01/29 08:57:20;;;;;;;11.60;5.50;;;;;;;8.06;100.00;101912.44;4851287;29;20044;-65
2022/01/29 08:59:46;;;;;;;10.77;4.95;;;;;;;8.10;100.00;101900.06;4852119;29;20050;-65
2022/01/29 09:02:11;;;;;;;16.52;5.32;;;;;;;8.10;100.00;101886.88;4850997;29;20040;-65
2022/01/29 09:04:37;;;;;;;12.48;5.05;;;;;;;8.12;100.00;101890.38;4849982;29;20688;-65
2022/01/29 09:07:02;;;;;;;13.80;5.20;;;;;;;8.13;100.00;101884.19;4852572;29;20491;-64
2022/01/29 09:09:28;;;;;;;13.77;4.50;;;;;;;8.16;100.00;101876.22;4851304;29;20033;-64
2022/01/29 09:11:54;;;;;;;13.27;5.03;;;;;;;8.16;100.00;101886.75;4851607;29;20084;-64
2022/01/29 09:14:20;;;;;;;14.18;4.50;;;;;;;8.18;100.00;101863.88;4848967;29;20051;-65
2022/01/29 09:16:46;;;;;;;14.88;4.82;;;;;;;8.22;100.00;101865.53;4851997;29;20125;-65
2022/01/29 09:19:12;;;;;;;13.00;5.18;;;;;;;8.24;100.00;101853.19;4848997;29;20114;-66
2022/01/29 09:21:38;;;;;;;15.13;4.68;;;;;;;8.26;100.00;101861.97;4838887;29;20033;-64
2022/01/29 09:24:03;;;;;;;14.43;3.83;;;;;;;8.30;100.00;101849.56;4836735;29;20071;-65
2022/01/29 09:26:29;;;;;;;15.43;3.90;;;;;;;8.33;100.00;101831.03;4850459;29;20071;-67
2022/01/29 09:28:55;;;;;;;13.90;3.90;;;;;;;8.37;100.00;101822.16;4836888;29;20152;-66
2022/01/29 09:31:21;;;;;;;9.40;4.00;;;;;;;8.41;100.00;101828.25;4850942;29;20112;-66
2022/01/29 09:33:46;;;;;;;11.68;3.90;;;;;;;8.46;100.00;101823.75;4849631;29;20044;-65
2022/01/29 09:36:12;;;;;;;16.20;3.90;;;;;;;8.48;100.00;101810.50;4851366;29;20164;-65
2022/01/29 09:38:37;;;;;;;12.75;3.55;;;;;;;8.51;100.00;101800.78;4851612;29;20442;-66
2022/01/29 09:41:04;;;;;;;9.50;3.33;;;;;;;8.53;100.00;101793.72;4838977;29;20039;-66
2022/01/29 09:43:32;;;;;;;15.15;3.40;;;;;;;8.55;100.00;101788.38;4850666;29;20048;-65
2022/01/29 09:45:58;;;;;;;14.23;3.35;;;;;;;8.58;100.00;101790.09;4851647;29;20065;-65
2022/01/29 09:48:27;;;;;;;8.93;2.95;;;;;;;8.59;100.00;101768.94;4851823;29;20159;-66
2022/01/29 09:50:54;;;;;;;11.32;3.35;;;;;;;8.62;100.00;101766.25;4849646;29;20026;-65
2022/01/29 09:53:20;;;;;;;18.17;3.53;;;;;;;8.65;100.00;101762.66;4851229;29;20132;-65
2022/01/29 09:55:46;;;;;;;16.00;2.88;;;;;;;8.67;100.00;101760.88;4849083;29;20092;-66
2022/01/29 09:58:12;;;;;;;13.93;3.00;;;;;;;8.69;100.00;101756.41;4850885;29;20045;-66
2022/01/29 10:00:38;;;;;;;10.77;2.60;;;;;;;8.70;100.00;101755.50;4850356;29;20037;-65
2022/01/29 10:03:10;;;;;;;12.73;2.90;;;;;;;8.74;100.00;101759.81;4852013;29;20206;-65
2022/01/29 10:05:40;;;;;;;11.88;3.60;;;;;;;8.78;100.00;101747.41;4836417;29;20132;-64
2022/01/29 10:08:07;;;;;;;12.93;3.13;;;;;;;8.80;100.00;101754.41;4837605;29;20543;-64
2022/01/29 10:10:43;;;;;;;16.02;2.92;;;;;;;8.86;100.00;101750.72;4848610;29;20041;-65
2022/01/29 10:13:34;;;;;;;16.15;3.10;;;;;;;8.91;100.00;101755.91;4850842;29;20050;-66
2022/01/29 10:16:23;;;;;;;11.32;3.60;;;;;;;8.96;100.00;101740.81;4849648;29;20141;-65
2022/01/29 10:19:04;;;;;;;14.05;3.13;;;;;;;9.01;100.00;101733.66;4848702;29;20603;-65
2022/01/29 10:21:36;;;;;;;14.23;2.70;;;;;;;9.08;100.00;101740.53;4850322;29;20047;-67
2022/01/29 10:24:04;;;;;;;9.25;3.53;;;;;;;9.15;100.00;101745.66;4849766;29;20030;-65
2022/01/29 10:26:38;;;;;;;12.07;3.10;;;;;;;9.20;100.00;101759.59;4851070;29;20065;-65
2022/01/29 10:29:09;;;;;;;12.70;3.05;;;;;;;9.23;100.00;101747.22;4850399;29;20552;-64
2022/01/29 10:31:55;;;;;;;11.55;2.88;;;;;;;9.24;100.00;101738.38;4850238;29;20055;-65
2022/01/29 10:34:28;;;;;;;15.68;2.97;;;;;;;9.28;100.00;101757.66;4842978;29;20049;-65
2022/01/29 10:37:14;;;;;;;10.60;2.75;;;;;;;9.31;100.00;101767.28;4846222;29;20524;-66
2022/01/29 10:39:55;;;;;;;9.63;3.28;;;;;;;9.34;100.00;101761.91;5056407;27;20500;-65
2022/01/29 10:42:30;;;;;;;13.88;3.33;;;;;;;9.36;100.00;101768.88;5053350;28;20041;-65
2022/01/29 10:45:03;;;;;;;11.75;2.85;;;;;;;9.37;100.00;101762.69;5056832;28;20063;-65
2022/01/29 10:47:52;;;;;;;8.02;2.67;;;;;;;9.38;100.00;101764.41;5055246;28;20033;-66
2022/01/29 10:50:17;;;;;;;12.07;2.50;;;;;;;9.41;100.00;101762.63;5055783;28;20032;-65
2022/01/29 10:52:42;;;;;;;13.70;2.90;;;;;;;9.42;100.00;101765.22;5057376;28;21452;-65
2022/01/29 10:55:09;;;;;;;11.85;2.50;;;;;;;9.44;100.00;101752.84;5055952;28;20033;-65
2022/01/29 10:57:39;;;;;;;11.80;2.90;;;;;;;9.43;100.00;101742.31;5045569;28;20047;-65
2022/01/29 11:00:18;;;;;;;14.85;2.60;;;;;;;9.42;100.00;101730.84;5056494;28;20920;-64
2022/01/29 11:02:44;;;;;;;13.65;2.55;;;;;;;9.43;100.00;101719.38;5056548;28;20051;-65
2022/01/29 11:05:11;;;;;;;12.65;2.40;;;;;;;9.43;100.00;101713.22;5053160;28;20116;-65
2022/01/29 11:07:37;;;;;;;13.40;2.38;;;;;;;9.43;100.00;101702.66;5056310;28;20043;-65
2022/01/29 11:10:05;;;;;;;13.20;2.63;;;;;;;9.43;100.00;101700.00;5056518;28;20094;-65
2022/01/29 11:12:31;;;;;;;13.52;2.65;;;;;;;9.43;100.00;101700.00;5056253;28;20401;-65
2022/01/29 11:14:59;;;;;;;9.18;2.35;;;;;;;9.40;100.00;101684.22;5056237;28;20032;-66
2022/01/29 11:17:26;;;;;;;8.40;2.30;;;;;;;9.40;100.00;101685.09;5057109;28;20032;-65
2022/01/29 11:19:52;;;;;;;8.52;2.03;;;;;;;9.43;100.00;101681.50;5054907;28;20115;-65
2022/01/29 11:22:20;;;;;;;7.35;2.15;;;;;;;9.48;100.00;101679.63;5055736;28;20086;-65
2022/01/29 11:24:47;;;;;;;12.13;2.10;;;;;;;9.53;100.00;101679.47;5055889;28;20040;-65
2022/01/29 11:27:27;;;;;;;7.85;2.25;;;;;;;9.58;100.00;101681.06;5056532;28;20495;-66